createdAt,value
2018-01-15T00:02:14.766Z,99375.67
2018-01-15T00:04:43.056Z,99381.70
2018-01-15T00:07:11.341Z,99372.86
2018-01-15T00:09:39.599Z,99369.81
2018-01-15T00:12:07.923Z,99373.33
2018-01-15T00:14:36.209Z,99367.38
2018-01-15T00:17:05.288Z,99363.67
2018-01-15T00:19:33.675Z,99364.54
2018-01-15T00:22:01.941Z,99356.13
2018-01-15T00:24:30.276Z,99352.30
2018-01-15T00:26:58.553Z,99347.38
2018-01-15T00:29:26.840Z,99330.81
2018-01-15T00:31:55.216Z,99330.99
2018-01-15T00:34:23.524Z,99319.17
2018-01-15T00:36:52.691Z,99306.86
2018-01-15T00:39:20.987Z,99316.02
2018-01-15T00:41:49.230Z,99307.13
2018-01-15T00:44:17.522Z,99306.23
2018-01-15T00:46:45.784Z,99289.97
2018-01-15T00:49:14.096Z,99283.89
2018-01-15T00:51:42.340Z,99284.58
2018-01-15T00:54:10.635Z,99309.97
2018-01-15T00:56:38.891Z,99304.81
2018-01-15T00:59:07.181Z,99302.73
2018-01-15T01:01:35.426Z,99304.34
2018-01-15T01:04:03.758Z,99305.36
2018-01-15T01:06:32.050Z,99292.96
2018-01-15T01:09:00.329Z,99295.02
2018-01-15T01:11:28.640Z,99291.55
2018-01-15T01:13:56.916Z,99281.45
2018-01-15T01:16:25.288Z,99289.50
2018-01-15T01:18:53.599Z,99289.45
2018-01-15T01:21:21.851Z,99285.13
2018-01-15T01:23:50.155Z,99285.61
2018-01-15T01:26:18.435Z,99287.09
2018-01-15T01:28:46.711Z,99282.63
2018-01-15T01:31:15.010Z,99277.26
2018-01-15T01:33:43.262Z,99272.44
2018-01-15T01:36:11.519Z,99274.45
2018-01-15T01:38:39.818Z,99266.84
2018-01-15T01:41:08.076Z,99272.13
2018-01-15T01:43:36.383Z,99278.17
2018-01-15T01:46:05.610Z,99280.15
2018-01-15T01:48:33.912Z,99282.79
2018-01-15T01:51:02.136Z,99282.19
2018-01-15T01:53:30.438Z,99290.20
2018-01-15T01:55:58.689Z,99286.30
2018-01-15T01:58:27.001Z,99286.81
2018-01-15T02:00:55.267Z,99269.69
2018-01-15T02:03:23.565Z,99272.70
2018-01-15T02:05:51.836Z,99266.99
2018-01-15T02:08:20.100Z,99267.38
2018-01-15T02:10:48.462Z,99267.94
2018-01-15T02:13:16.687Z,99259.21
2018-01-15T02:15:44.998Z,99264.95
2018-01-15T02:18:13.287Z,99247.45
2018-01-15T02:20:41.593Z,99261.89
2018-01-15T02:23:09.858Z,99261.55
2018-01-15T02:25:38.163Z,99255.84
2018-01-15T02:28:06.424Z,99257.35
2018-01-15T02:30:34.741Z,99256.92
2018-01-15T02:33:03.027Z,99253.65
2018-01-15T02:35:31.343Z,99254.03
2018-01-15T02:37:59.659Z,99253.45
2018-01-15T02:40:28.340Z,99253.09
2018-01-15T02:42:56.614Z,99240.64
2018-01-15T02:45:24.881Z,99248.06
2018-01-15T02:47:53.172Z,99239.25
2018-01-15T02:50:21.452Z,99241.71
2018-01-15T02:52:49.755Z,99244.87
2018-01-15T02:55:18.043Z,99233.09
2018-01-15T02:57:46.366Z,99224.78
2018-01-15T03:00:14.622Z,99228.19
2018-01-15T03:02:43.699Z,99223.48
2018-01-15T03:05:11.986Z,99208.78
2018-01-15T03:07:40.271Z,99213.44
2018-01-15T03:10:08.567Z,99215.63
2018-01-15T03:12:36.887Z,99217.05
2018-01-15T03:15:05.133Z,99217.13
2018-01-15T03:17:33.428Z,99211.25
2018-01-15T03:20:01.747Z,99209.35
2018-01-15T03:22:30.077Z,99197.44
2018-01-15T03:24:58.382Z,99198.33
2018-01-15T03:27:26.699Z,99201.92
2018-01-15T03:29:54.975Z,99196.12
2018-01-15T03:32:23.240Z,99186.30
2018-01-15T03:34:51.540Z,99185.19
2018-01-15T03:37:19.798Z,99163.17
2018-01-15T03:39:48.083Z,99176.69
2018-01-15T03:42:16.354Z,99171.45
2018-01-15T03:44:44.639Z,99166.25
2018-01-15T03:47:12.921Z,99166.46
2018-01-15T03:49:41.203Z,99164.27
2018-01-15T03:52:09.512Z,99162.55
2018-01-15T03:54:37.816Z,99161.97
2018-01-15T03:57:06.097Z,99152.25
2018-01-15T03:59:34.372Z,99147.63
2018-01-15T04:02:02.665Z,99142.55
2018-01-15T04:04:30.936Z,99137.83
2018-01-15T04:06:59.230Z,99135.93
2018-01-15T04:09:27.501Z,99144.74
2018-01-15T04:11:55.780Z,99130.41
2018-01-15T04:14:24.050Z,99139.98
2018-01-15T04:16:52.328Z,99136.98
2018-01-15T04:19:20.602Z,99128.98
2018-01-15T04:21:48.876Z,99120.36
2018-01-15T04:24:17.183Z,99117.03
2018-01-15T04:26:45.436Z,99113.71
2018-01-15T04:29:13.716Z,99110.73
2018-01-15T04:31:41.972Z,99106.84
2018-01-15T04:34:10.261Z,99086.00
2018-01-15T04:36:38.532Z,99088.83
2018-01-15T04:39:06.825Z,99107.02
2018-01-15T04:41:35.084Z,99095.33
2018-01-15T04:44:04.159Z,99103.69
2018-01-15T04:46:32.445Z,99099.25
2018-01-15T04:49:00.735Z,99099.83
2018-01-15T04:51:28.997Z,99101.53
2018-01-15T04:53:57.303Z,99104.23
2018-01-15T04:56:25.590Z,99098.73
2018-01-15T04:58:53.888Z,99095.52
2018-01-15T05:01:22.174Z,99094.70
2018-01-15T05:03:50.445Z,99074.47
2018-01-15T05:06:18.747Z,99080.88
2018-01-15T05:08:47.017Z,99080.84
2018-01-15T05:11:15.317Z,99082.67
2018-01-15T05:13:43.594Z,99083.44
2018-01-15T05:16:11.879Z,99086.44
2018-01-15T05:18:40.140Z,99084.54
2018-01-15T05:21:08.426Z,99088.66
2018-01-15T05:23:36.718Z,99088.87
2018-01-15T05:26:05.004Z,99081.51
2018-01-15T05:28:33.269Z,99083.55
2018-01-15T05:31:01.546Z,99068.02
2018-01-15T05:33:29.811Z,99079.11
2018-01-15T05:35:58.134Z,99059.80
2018-01-15T05:38:26.441Z,99067.55
2018-01-15T05:40:54.694Z,99074.17
2018-01-15T05:43:23.002Z,99075.70
2018-01-15T05:45:51.293Z,99065.48
2018-01-15T05:48:19.603Z,99050.36
2018-01-15T05:50:47.880Z,99078.86
2018-01-15T05:53:16.179Z,99062.02
2018-01-15T05:55:44.438Z,99072.02
2018-01-15T05:58:12.728Z,99068.83
2018-01-15T06:00:41.471Z,99066.81
2018-01-15T06:03:10.129Z,99071.70
2018-01-15T06:05:38.933Z,99063.87
2018-01-15T06:08:07.199Z,99058.76
2018-01-15T06:10:35.491Z,99050.95
2018-01-15T06:13:03.768Z,99065.14
2018-01-15T06:15:32.058Z,99068.05
2018-01-15T06:18:00.323Z,99066.69
2018-01-15T06:20:28.614Z,99066.53
2018-01-15T06:22:56.930Z,99063.11
2018-01-15T06:25:25.239Z,99059.02
2018-01-15T06:27:53.539Z,99047.41
2018-01-15T06:30:21.833Z,99038.97
2018-01-15T06:32:50.101Z,99049.55
2018-01-15T06:35:18.845Z,99052.06
2018-01-15T06:37:47.137Z,99035.55
2018-01-15T06:40:15.473Z,99043.47
2018-01-15T06:42:43.742Z,99044.52
2018-01-15T06:45:12.015Z,99044.42
2018-01-15T06:47:40.321Z,99042.09
2018-01-15T06:50:08.583Z,99041.23
2018-01-15T06:52:36.991Z,99038.03
2018-01-15T06:55:05.239Z,99035.17
2018-01-15T06:57:33.544Z,99039.25
2018-01-15T07:00:01.818Z,99036.95
2018-01-15T07:02:30.130Z,99030.67
2018-01-15T07:04:58.413Z,99027.75
2018-01-15T07:07:26.766Z,99021.76
2018-01-15T07:09:55.057Z,99029.44
2018-01-15T07:12:24.243Z,99022.80
2018-01-15T07:14:52.573Z,99032.01
2018-01-15T07:17:20.871Z,99020.95
2018-01-15T07:22:17.440Z,99015.11
2018-01-15T07:24:45.747Z,99000.94
2018-01-15T07:27:14.035Z,99016.58
2018-01-15T07:29:42.345Z,99017.61
2018-01-15T07:32:10.606Z,99030.20
2018-01-15T07:34:38.912Z,99015.73
2018-01-15T07:37:07.184Z,99006.83
2018-01-15T07:39:35.515Z,99007.47
2018-01-15T07:42:03.763Z,99003.83
2018-01-15T07:44:32.088Z,99004.18
2018-01-15T07:47:00.410Z,99002.87
2018-01-15T07:49:28.709Z,99007.42
2018-01-15T07:51:56.979Z,99010.52
2018-01-15T07:54:25.325Z,98979.67
2018-01-15T07:56:53.600Z,98988.89
2018-01-15T07:59:21.911Z,98990.16
2018-01-15T08:01:50.188Z,98991.84
2018-01-15T08:04:18.495Z,98985.72
2018-01-15T08:06:46.868Z,98985.77
2018-01-15T08:09:15.145Z,98977.88
2018-01-15T08:11:43.537Z,98975.61
2018-01-15T08:14:11.846Z,98972.91
2018-01-15T08:16:40.210Z,98964.76
2018-01-15T08:19:08.488Z,98967.57
2018-01-15T08:21:36.812Z,98961.56
2018-01-15T08:24:05.197Z,98963.39
2018-01-15T08:26:33.511Z,98955.84
2018-01-15T08:29:01.792Z,98954.08
2018-01-15T08:31:30.095Z,98956.67
2018-01-15T08:33:58.391Z,98950.80
2018-01-15T08:36:26.702Z,98944.16
2018-01-15T08:38:55.034Z,98927.39
2018-01-15T08:41:23.349Z,98937.76
2018-01-15T08:43:51.686Z,98942.02
2018-01-15T08:46:19.952Z,98937.58
2018-01-15T08:48:48.254Z,98930.34
2018-01-15T08:51:16.556Z,98926.88
2018-01-15T08:53:44.865Z,98929.75
2018-01-15T08:56:13.160Z,98924.17
2018-01-15T08:58:41.515Z,98912.73
2018-01-15T09:01:09.832Z,98918.58
2018-01-15T09:03:38.092Z,98898.98
2018-01-15T09:06:06.358Z,98885.44
2018-01-15T09:08:34.661Z,98908.48
2018-01-15T09:11:02.935Z,98851.97
2018-01-15T09:13:31.251Z,98897.58
2018-01-15T09:15:59.552Z,98888.66
2018-01-15T09:18:27.819Z,98880.14
2018-01-15T09:20:56.136Z,98894.53
2018-01-15T09:23:24.414Z,98889.82
2018-01-15T09:25:52.775Z,98888.41
2018-01-15T09:28:21.016Z,98884.72
2018-01-15T09:30:49.341Z,98884.22
2018-01-15T09:33:17.637Z,98875.06
2018-01-15T09:35:45.978Z,98879.73
2018-01-15T09:38:14.255Z,98866.52
2018-01-15T09:40:42.571Z,98871.91
2018-01-15T09:43:10.926Z,98870.25
2018-01-15T09:45:39.408Z,98864.09
2018-01-15T09:48:07.680Z,98854.22
2018-01-15T09:50:36.006Z,98860.59
2018-01-15T09:53:04.355Z,98838.85
2018-01-15T09:55:32.744Z,98851.52
2018-01-15T09:58:00.997Z,98857.03
2018-01-15T10:00:29.333Z,98851.24
2018-01-15T10:02:57.655Z,98841.66
2018-01-15T10:05:25.920Z,98841.81
2018-01-15T10:07:54.347Z,98837.48
2018-01-15T10:10:22.683Z,98833.88
2018-01-15T10:12:50.950Z,98825.55
2018-01-15T10:15:19.287Z,98801.58
2018-01-15T10:17:47.562Z,98810.20
2018-01-15T10:20:15.855Z,98800.83
2018-01-15T10:22:44.138Z,98792.82
2018-01-15T10:25:12.467Z,98800.84
2018-01-15T10:27:40.748Z,98787.27
2018-01-15T10:30:09.035Z,98791.45
2018-01-15T10:32:37.316Z,98777.59
2018-01-15T10:35:05.651Z,98774.36
2018-01-15T10:37:36.467Z,98770.38
2018-01-15T10:40:05.421Z,98735.53
2018-01-15T10:42:33.712Z,98760.09
2018-01-15T10:45:02.078Z,98751.40
2018-01-15T10:47:30.356Z,98748.58
2018-01-15T10:49:58.698Z,98742.28
2018-01-15T10:52:27.003Z,98741.36
2018-01-15T10:54:55.308Z,98733.88
2018-01-15T10:57:23.609Z,98731.64
2018-01-15T10:59:51.980Z,98717.80
2018-01-15T11:02:20.342Z,98733.96
2018-01-15T11:04:48.655Z,98725.61
2018-01-15T11:07:16.991Z,98720.56
2018-01-15T11:09:45.236Z,98704.94
2018-01-15T11:12:13.539Z,98714.49
2018-01-15T11:14:41.825Z,98704.83
2018-01-15T11:17:10.112Z,98688.05
2018-01-15T11:19:38.421Z,98663.41
2018-01-15T11:22:06.724Z,98663.34
2018-01-15T11:24:35.013Z,98665.20
2018-01-15T11:27:03.307Z,98648.30
2018-01-15T11:29:31.590Z,98644.72
2018-01-15T11:31:59.933Z,98647.59
2018-01-15T11:34:28.235Z,98633.59
2018-01-15T11:36:56.529Z,98621.52
2018-01-15T11:39:24.852Z,98621.50
2018-01-15T11:41:53.308Z,98618.36
2018-01-15T11:44:21.723Z,98607.55
2018-01-15T11:46:50.022Z,98601.55
2018-01-15T11:49:18.412Z,98598.70
2018-01-15T11:51:46.701Z,98588.84
2018-01-15T11:54:15.009Z,98591.27
2018-01-15T11:56:43.346Z,98587.02
2018-01-15T11:59:12.614Z,98586.78
2018-01-15T12:01:40.908Z,98581.47
2018-01-15T12:04:09.191Z,98568.05
2018-01-15T12:06:37.494Z,98568.11
2018-01-15T12:09:05.871Z,98552.45
2018-01-15T12:11:34.221Z,98556.82
2018-01-15T12:14:02.565Z,98525.36
2018-01-15T12:16:30.856Z,98537.96
2018-01-15T12:18:59.107Z,98532.10
2018-01-15T12:21:27.398Z,98535.28
2018-01-15T12:23:55.675Z,98526.61
2018-01-15T12:26:24.021Z,98514.39
2018-01-15T12:28:52.283Z,98519.72
2018-01-15T12:31:20.626Z,98506.17
2018-01-15T12:33:48.875Z,98505.70
2018-01-15T12:36:17.189Z,98494.23
2018-01-15T12:38:46.350Z,98495.56
2018-01-15T12:41:14.653Z,98499.34
2018-01-15T12:43:42.944Z,98480.95
2018-01-15T12:46:11.324Z,98492.16
2018-01-15T12:48:39.636Z,98479.81
2018-01-15T12:51:07.919Z,98484.06
2018-01-15T12:53:36.691Z,98467.91
2018-01-15T12:56:05.047Z,98417.38
2018-01-15T12:58:33.764Z,98467.91
2018-01-15T13:01:02.035Z,98461.59
2018-01-15T13:03:30.620Z,98449.46
2018-01-15T13:06:07.563Z,98435.11
2018-01-15T13:11:41.412Z,98426.34
2018-01-15T13:14:09.795Z,98421.06
2018-01-15T13:16:38.064Z,98409.25
2018-01-15T13:19:06.394Z,98398.58
2018-01-15T13:21:34.647Z,98383.69
2018-01-15T13:24:03.699Z,98367.41
2018-01-15T13:26:34.225Z,98358.09
2018-01-15T13:29:03.221Z,98346.79
2018-01-15T13:31:31.555Z,98338.77
2018-01-15T13:33:59.891Z,98315.11
2018-01-15T13:36:28.249Z,98276.56
2018-01-15T13:38:56.486Z,98293.67
2018-01-15T13:41:24.809Z,98268.27
2018-01-15T13:43:53.152Z,98278.31
2018-01-15T13:46:21.478Z,98262.91
2018-01-15T13:48:49.752Z,98237.91
2018-01-15T13:51:18.052Z,98225.70
2018-01-15T13:53:46.386Z,98208.60
2018-01-15T13:56:14.688Z,98204.80
2018-01-15T13:58:42.928Z,98198.09
2018-01-15T14:01:11.222Z,98185.99
2018-01-15T14:03:39.467Z,98184.16
2018-01-15T14:06:07.793Z,98174.04
2018-01-15T14:08:36.090Z,98170.98
2018-01-15T14:11:05.247Z,98126.31
2018-01-15T14:13:33.522Z,98145.50
2018-01-15T14:16:01.817Z,98132.61
2018-01-15T14:18:30.086Z,98125.13
2018-01-15T14:20:58.440Z,98114.33
2018-01-15T14:23:26.744Z,98116.70
2018-01-15T14:25:54.964Z,98112.49
2018-01-15T14:28:23.320Z,98103.83
2018-01-15T14:30:51.679Z,98114.20
2018-01-15T14:33:19.990Z,98104.81
2018-01-15T14:35:48.305Z,98114.58
2018-01-15T14:38:16.630Z,98104.72
2018-01-15T14:40:44.880Z,98096.31
2018-01-15T14:43:13.156Z,98098.27
2018-01-15T14:45:41.463Z,98096.16
2018-01-15T14:48:09.756Z,98089.62
2018-01-15T14:50:38.070Z,98080.17
2018-01-15T14:53:06.339Z,98088.58
2018-01-15T14:55:34.637Z,98081.05
2018-01-15T14:58:02.899Z,98079.38
2018-01-15T15:00:31.235Z,98086.47
2018-01-15T15:02:59.540Z,98057.33
2018-01-15T15:05:27.787Z,98074.91
2018-01-15T15:07:56.136Z,98076.34
2018-01-15T15:10:24.454Z,98075.80
2018-01-15T15:12:52.763Z,98071.64
2018-01-15T15:15:21.816Z,98072.92
2018-01-15T15:17:51.031Z,98072.25
2018-01-15T15:20:19.295Z,98074.23
2018-01-15T15:22:47.606Z,98078.75
2018-01-15T15:25:15.924Z,98065.75
2018-01-15T15:27:44.222Z,98051.68
2018-01-15T15:30:14.840Z,98041.16
2018-01-15T15:32:43.161Z,98030.13
2018-01-15T15:35:12.111Z,98026.59
2018-01-15T15:37:41.333Z,98013.30
2018-01-15T15:40:09.651Z,98001.34
2018-01-15T15:42:37.975Z,97992.16
2018-01-15T15:45:06.308Z,97995.58
2018-01-15T15:47:34.565Z,97992.16
2018-01-15T15:50:02.920Z,97994.50
2018-01-15T15:52:31.181Z,97995.57
2018-01-15T15:54:59.463Z,97989.92
2018-01-15T15:57:27.765Z,97997.53
2018-01-15T15:59:56.057Z,97979.04
2018-01-15T16:02:24.354Z,97982.19
2018-01-15T16:04:52.646Z,97976.66
2018-01-15T16:07:20.952Z,97974.28
2018-01-15T16:09:49.567Z,97953.81
2018-01-15T16:12:17.835Z,97951.43
2018-01-15T16:14:46.105Z,97929.00
2018-01-15T16:17:14.393Z,97924.42
2018-01-15T16:19:42.690Z,97915.87
2018-01-15T16:22:22.685Z,97908.14
2018-01-15T16:24:50.935Z,97897.37
2018-01-15T16:27:19.227Z,97905.37
2018-01-15T16:29:47.495Z,97870.59
2018-01-15T16:32:15.809Z,97890.77
2018-01-15T16:34:44.080Z,97889.58
2018-01-15T16:37:12.380Z,97884.20
2018-01-15T16:39:40.667Z,97881.17
2018-01-15T16:42:08.931Z,97876.04
2018-01-15T16:44:38.396Z,97871.30
2018-01-15T16:47:06.652Z,97867.64
2018-01-15T16:49:35.533Z,97858.45
2018-01-15T16:52:03.845Z,97864.73
2018-01-15T16:54:32.168Z,97851.33
2018-01-15T16:57:00.438Z,97848.86
2018-01-15T16:59:28.727Z,97838.87
2018-01-15T17:01:56.991Z,97826.42
2018-01-15T17:04:25.266Z,97816.95
2018-01-15T17:06:53.553Z,97816.88
2018-01-15T17:09:21.830Z,97809.98
2018-01-15T17:11:50.089Z,97792.56
2018-01-15T17:14:18.361Z,97793.17
2018-01-15T17:16:46.694Z,97789.64
2018-01-15T17:19:14.935Z,97792.26
2018-01-15T17:21:43.207Z,97781.38
2018-01-15T17:24:11.515Z,97773.50
2018-01-15T17:26:39.801Z,97766.59
2018-01-15T17:29:08.075Z,97762.63
2018-01-15T17:31:36.359Z,97753.16
2018-01-15T17:34:05.503Z,97733.66
2018-01-15T17:36:33.826Z,97741.91
2018-01-15T17:39:02.788Z,97732.66
2018-01-15T17:41:31.132Z,97724.77
2018-01-15T17:43:59.401Z,97697.92
2018-01-15T17:46:27.683Z,97714.08
2018-01-15T17:48:55.958Z,97701.34
2018-01-15T17:51:24.235Z,97694.38
2018-01-15T17:53:53.214Z,97688.72
2018-01-15T17:56:21.778Z,97670.52
2018-01-15T17:58:50.051Z,97680.10
2018-01-15T18:01:18.300Z,97654.10
2018-01-15T18:03:46.590Z,97673.61
2018-01-15T18:06:14.839Z,97675.80
2018-01-15T18:08:43.125Z,97667.57
2018-01-15T18:11:11.357Z,97676.87
2018-01-15T18:13:39.645Z,97644.41
2018-01-15T18:16:07.895Z,97648.08
2018-01-15T18:18:36.200Z,97646.86
2018-01-15T18:21:04.466Z,97643.41
2018-01-15T18:23:32.744Z,97637.80
2018-01-15T18:26:01.015Z,97634.09
2018-01-15T18:28:29.258Z,97622.01
2018-01-15T18:30:57.526Z,97617.16
2018-01-15T18:33:25.817Z,97584.44
2018-01-15T18:35:54.075Z,97591.11
2018-01-15T18:38:22.380Z,97565.78
2018-01-15T18:40:50.661Z,97579.81
2018-01-15T18:43:18.925Z,97579.64
2018-01-15T18:45:47.237Z,97568.63
2018-01-15T18:48:15.575Z,97570.85
2018-01-15T18:50:43.868Z,97579.11
2018-01-15T18:53:12.109Z,97544.85
2018-01-15T18:55:40.476Z,97540.23
2018-01-15T18:58:08.735Z,97558.12
2018-01-15T19:00:37.076Z,97545.31
2018-01-15T19:03:05.610Z,97530.52
2018-01-15T19:05:33.848Z,97533.25
2018-01-15T19:08:02.144Z,97538.92
2018-01-15T19:10:30.377Z,97528.12
2018-01-15T19:12:58.674Z,97532.20
2018-01-15T19:15:26.919Z,97522.48
2018-01-15T19:17:55.307Z,97513.41
2018-01-15T19:20:23.506Z,97520.14
2018-01-15T19:22:51.794Z,97522.59
2018-01-15T19:25:20.065Z,97528.62
2018-01-15T19:27:48.392Z,97515.80
2018-01-15T19:30:16.704Z,97513.63
2018-01-15T19:32:45.020Z,97502.13
2018-01-15T19:35:16.718Z,97496.86
2018-01-15T19:37:49.910Z,97493.21
2018-01-15T19:40:18.171Z,97474.35
2018-01-15T19:42:46.566Z,97479.68
2018-01-15T19:45:20.474Z,97480.52
2018-01-15T19:47:54.215Z,97466.31
2018-01-15T19:50:28.214Z,97468.38
2018-01-15T19:53:02.026Z,97459.42
2018-01-15T19:55:35.958Z,97454.55
2018-01-15T19:58:09.777Z,97462.33
2018-01-15T20:00:43.776Z,97462.05
2018-01-15T20:06:23.051Z,97446.61
2018-01-15T20:08:57.006Z,97439.83
2018-01-15T20:11:25.316Z,97434.97
2018-01-15T20:13:53.559Z,97431.06
2018-01-15T20:16:21.846Z,97431.87
2018-01-15T20:18:50.151Z,97412.72
2018-01-15T20:21:18.475Z,97422.38
2018-01-15T20:23:46.776Z,97419.38
2018-01-15T20:26:15.076Z,97424.78
2018-01-15T20:28:43.338Z,97409.47
2018-01-15T20:31:12.423Z,97409.83
2018-01-15T20:33:40.707Z,97409.27
2018-01-15T20:36:08.975Z,97406.24
2018-01-15T20:38:37.293Z,97391.23
2018-01-15T20:41:05.533Z,97389.59
2018-01-15T20:43:33.854Z,97387.06
2018-01-15T20:46:02.074Z,97413.86
2018-01-15T20:48:30.355Z,97398.24
2018-01-15T20:50:58.635Z,97391.80
2018-01-15T20:53:26.904Z,97388.68
2018-01-15T20:55:55.145Z,97373.67
2018-01-15T20:58:23.418Z,97379.53
2018-01-15T21:00:51.682Z,97393.23
2018-01-15T21:03:19.935Z,97367.42
2018-01-15T21:05:48.199Z,97368.30
2018-01-15T21:08:16.474Z,97364.20
2018-01-15T21:10:44.853Z,97367.53
2018-01-15T21:13:13.111Z,97344.95
2018-01-15T21:15:41.406Z,97344.10
2018-01-15T21:18:09.648Z,97337.92
2018-01-15T21:20:37.937Z,97336.48
2018-01-15T21:23:06.230Z,97334.90
2018-01-15T21:25:34.507Z,97338.50
2018-01-15T21:28:02.785Z,97346.53
2018-01-15T21:30:31.097Z,97338.55
2018-01-15T21:32:59.460Z,97336.64
2018-01-15T21:35:27.760Z,97311.71
2018-01-15T21:37:56.048Z,97337.05
2018-01-15T21:40:24.346Z,97338.78
2018-01-15T21:42:52.633Z,97323.13
2018-01-15T21:45:20.917Z,97344.70
2018-01-15T21:47:49.171Z,97323.80
2018-01-15T21:50:17.431Z,97325.33
2018-01-15T21:52:45.755Z,97308.97
2018-01-15T21:55:14.061Z,97304.92
2018-01-15T21:57:42.365Z,97302.11
2018-01-15T22:00:10.621Z,97303.14
2018-01-15T22:02:38.952Z,97286.78
2018-01-15T22:05:07.222Z,97295.20
2018-01-15T22:07:35.506Z,97282.97
2018-01-15T22:10:03.769Z,97279.22
2018-01-15T22:12:32.059Z,97282.59
2018-01-15T22:15:00.352Z,97309.34
2018-01-15T22:17:28.627Z,97279.72
2018-01-15T22:19:56.882Z,97291.49
2018-01-15T22:22:25.192Z,97293.95
2018-01-15T22:24:53.466Z,97288.37
2018-01-15T22:27:21.743Z,97273.37
2018-01-15T22:29:50.023Z,97275.16
2018-01-15T22:32:18.642Z,97269.49
2018-01-15T22:34:46.903Z,97268.83
2018-01-15T22:37:15.357Z,97249.45
2018-01-15T22:39:43.610Z,97264.45
2018-01-15T22:42:11.881Z,97252.12
2018-01-15T22:44:40.167Z,97248.70
2018-01-15T22:47:08.432Z,97237.62
2018-01-15T22:49:36.719Z,97260.72
2018-01-15T22:52:05.701Z,97243.80
2018-01-15T22:54:33.982Z,97257.81
2018-01-15T22:57:02.281Z,97251.88
2018-01-15T22:59:30.543Z,97239.73
2018-01-15T23:01:58.841Z,97247.89
2018-01-15T23:04:27.091Z,97230.98
2018-01-15T23:06:55.453Z,97226.29
2018-01-15T23:09:23.699Z,97202.81
2018-01-15T23:11:51.978Z,97230.65
2018-01-15T23:14:20.236Z,97227.99
2018-01-15T23:16:48.520Z,97236.39
2018-01-15T23:19:16.794Z,97221.64
2018-01-15T23:21:45.098Z,97223.73
2018-01-15T23:24:13.370Z,97235.37
2018-01-15T23:26:41.624Z,97233.38
2018-01-15T23:29:09.913Z,97254.24
2018-01-15T23:31:38.172Z,97252.70
2018-01-15T23:34:06.464Z,97249.67
2018-01-15T23:36:34.717Z,97240.59
2018-01-15T23:39:03.027Z,97235.21
2018-01-15T23:41:31.280Z,97255.38
2018-01-15T23:43:59.599Z,97249.70
2018-01-15T23:46:27.850Z,97245.02
2018-01-15T23:48:56.127Z,97221.63
2018-01-15T23:51:24.384Z,97241.48
2018-01-15T23:53:52.672Z,97241.73
2018-01-15T23:56:20.926Z,97231.14
2018-01-15T23:58:49.177Z,97226.34
